sensor_id;sensor_type;location;lat;lon;timestamp;P1;durP1;ratioP1;P2;durP2;ratioP2
32613;SDS011;19031;51.400;6.770;2022-09-20T00:00:44;8.82;;;4.22;;
32613;SDS011;19031;51.400;6.770;2022-09-20T00:03:11;8.95;;;4.20;;
32613;SDS011;19031;51.400;6.770;2022-09-20T00:05:39;7.60;;;3.10;;
32613;SDS011;19031;51.400;6.770;2022-09-20T00:08:09;5.88;;;3.15;;
32613;SDS011;19031;51.400;6.770;2022-09-20T00:10:37;9.15;;;4.18;;
32613;SDS011;19031;51.400;6.770;2022-09-20T00:13:05;6.65;;;3.30;;
32613;SDS011;19031;51.400;6.770;2022-09-20T00:15:31;7.75;;;3.55;;
32613;SDS011;19031;51.400;6.770;2022-09-20T00:17:58;7.93;;;3.28;;
32613;SDS011;19031;51.400;6.770;2022-09-20T00:20:23;4.25;;;2.92;;
32613;SDS011;19031;51.400;6.770;2022-09-20T00:22:50;11.85;;;2.97;;
32613;SDS011;19031;51.400;6.770;2022-09-20T00:25:16;9.60;;;3.00;;
32613;SDS011;19031;51.400;6.770;2022-09-20T00:27:42;6.82;;;3.00;;
32613;SDS011;19031;51.400;6.770;2022-09-20T00:30:08;6.70;;;2.45;;
32613;SDS011;19031;51.400;6.770;2022-09-20T00:32:34;6.32;;;2.67;;
32613;SDS011;19031;51.400;6.770;2022-09-20T00:35:00;15.88;;;2.97;;
32613;SDS011;19031;51.400;6.770;2022-09-20T00:37:32;5.15;;;2.40;;
32613;SDS011;19031;51.400;6.770;2022-09-20T00:40:08;9.50;;;2.63;;
32613;SDS011;19031;51.400;6.770;2022-09-20T00:42:37;9.75;;;2.33;;
32613;SDS011;19031;51.400;6.770;2022-09-20T00:47:41;7.10;;;2.88;;
32613;SDS011;19031;51.400;6.770;2022-09-20T00:50:26;12.45;;;2.50;;
32613;SDS011;19031;51.400;6.770;2022-09-20T00:53:00;7.63;;;1.98;;
32613;SDS011;19031;51.400;6.770;2022-09-20T00:55:29;11.05;;;2.45;;
32613;SDS011;19031;51.400;6.770;2022-09-20T00:57:57;2.47;;;1.60;;
32613;SDS011;19031;51.400;6.770;2022-09-20T01:00:23;4.55;;;2.20;;
32613;SDS011;19031;51.400;6.770;2022-09-20T01:02:52;6.75;;;1.92;;
32613;SDS011;19031;51.400;6.770;2022-09-20T01:05:21;4.80;;;2.05;;
32613;SDS011;19031;51.400;6.770;2022-09-20T01:07:48;2.75;;;2.03;;
32613;SDS011;19031;51.400;6.770;2022-09-20T01:10:15;8.30;;;2.03;;
32613;SDS011;19031;51.400;6.770;2022-09-20T01:12:41;7.15;;;2.08;;
32613;SDS011;19031;51.400;6.770;2022-09-20T01:15:08;5.93;;;2.22;;
32613;SDS011;19031;51.400;6.770;2022-09-20T01:17:35;6.25;;;1.70;;
32613;SDS011;19031;51.400;6.770;2022-09-20T01:20:16;3.60;;;1.80;;
32613;SDS011;19031;51.400;6.770;2022-09-20T01:31:59;9.00;;;2.05;;
32613;SDS011;19031;51.400;6.770;2022-09-20T01:42:18;2.60;;;1.38;;
32613;SDS011;19031;51.400;6.770;2022-09-20T01:55:41;9.38;;;2.00;;
32613;SDS011;19031;51.400;6.770;2022-09-20T02:01:35;6.03;;;1.73;;
32613;SDS011;19031;51.400;6.770;2022-09-20T02:09:40;4.88;;;2.03;;
32613;SDS011;19031;51.400;6.770;2022-09-20T02:23:21;2.50;;;1.20;;
32613;SDS011;19031;51.400;6.770;2022-09-20T02:28:54;2.78;;;1.33;;
32613;SDS011;19031;51.400;6.770;2022-09-20T02:45:19;14.38;;;2.47;;
32613;SDS011;19031;51.400;6.770;2022-09-20T02:50:34;3.25;;;1.80;;
32613;SDS011;19031;51.400;6.770;2022-09-20T03:04:01;7.30;;;2.50;;
32613;SDS011;19031;51.400;6.770;2022-09-20T03:15:16;2.35;;;1.35;;
32613;SDS011;19031;51.400;6.770;2022-09-20T03:18:10;2.00;;;1.20;;
32613;SDS011;19031;51.400;6.770;2022-09-20T03:20:46;5.22;;;2.10;;
32613;SDS011;19031;51.400;6.770;2022-09-20T03:23:34;5.47;;;2.00;;
32613;SDS011;19031;51.400;6.770;2022-09-20T03:26:03;7.68;;;1.63;;
32613;SDS011;19031;51.400;6.770;2022-09-20T03:53:00;2.78;;;1.27;;
32613;SDS011;19031;51.400;6.770;2022-09-20T03:55:43;2.15;;;1.20;;
32613;SDS011;19031;51.400;6.770;2022-09-20T04:04:23;4.85;;;2.13;;
32613;SDS011;19031;51.400;6.770;2022-09-20T04:18:36;6.53;;;1.88;;
32613;SDS011;19031;51.400;6.770;2022-09-20T04:21:27;5.13;;;1.77;;
32613;SDS011;19031;51.400;6.770;2022-09-20T04:24:18;2.97;;;1.60;;
32613;SDS011;19031;51.400;6.770;2022-09-20T04:27:24;2.90;;;1.33;;
32613;SDS011;19031;51.400;6.770;2022-09-20T04:29:54;13.75;;;1.98;;
32613;SDS011;19031;51.400;6.770;2022-09-20T04:35:10;3.42;;;1.60;;
32613;SDS011;19031;51.400;6.770;2022-09-20T04:38:15;3.17;;;1.60;;
32613;SDS011;19031;51.400;6.770;2022-09-20T04:49:25;2.63;;;1.77;;
32613;SDS011;19031;51.400;6.770;2022-09-20T04:52:20;3.53;;;1.70;;
32613;SDS011;19031;51.400;6.770;2022-09-20T05:07:03;3.13;;;1.35;;
32613;SDS011;19031;51.400;6.770;2022-09-20T05:12:51;5.07;;;1.83;;
32613;SDS011;19031;51.400;6.770;2022-09-20T05:23:45;9.20;;;1.73;;
32613;SDS011;19031;51.400;6.770;2022-09-20T05:34:38;7.70;;;2.28;;
32613;SDS011;19031;51.400;6.770;2022-09-20T05:48:45;14.35;;;2.75;;
32613;SDS011;19031;51.400;6.770;2022-09-20T05:59:43;4.07;;;2.15;;
32613;SDS011;19031;51.400;6.770;2022-09-20T06:16:05;3.85;;;1.85;;
32613;SDS011;19031;51.400;6.770;2022-09-20T06:18:39;14.82;;;2.67;;
32613;SDS011;19031;51.400;6.770;2022-09-20T06:21:34;4.10;;;2.60;;
32613;SDS011;19031;51.400;6.770;2022-09-20T06:24:16;9.20;;;2.22;;
32613;SDS011;19031;51.400;6.770;2022-09-20T06:26:55;6.07;;;1.98;;
32613;SDS011;19031;51.400;6.770;2022-09-20T06:29:31;5.57;;;2.20;;
32613;SDS011;19031;51.400;6.770;2022-09-20T06:32:00;7.43;;;3.07;;
32613;SDS011;19031;51.400;6.770;2022-09-20T06:34:26;7.85;;;3.08;;
32613;SDS011;19031;51.400;6.770;2022-09-20T06:36:53;4.22;;;2.03;;
32613;SDS011;19031;51.400;6.770;2022-09-20T06:43:23;4.38;;;2.97;;
32613;SDS011;19031;51.400;6.770;2022-09-20T06:45:48;5.13;;;2.22;;
32613;SDS011;19031;51.400;6.770;2022-09-20T06:48:14;4.25;;;1.67;;
32613;SDS011;19031;51.400;6.770;2022-09-20T06:50:40;9.40;;;2.55;;
32613;SDS011;19031;51.400;6.770;2022-09-20T06:53:10;4.15;;;2.00;;
32613;SDS011;19031;51.400;6.770;2022-09-20T06:55:40;5.20;;;2.50;;
32613;SDS011;19031;51.400;6.770;2022-09-20T06:58:07;3.92;;;2.38;;
32613;SDS011;19031;51.400;6.770;2022-09-20T07:00:33;6.65;;;2.28;;
32613;SDS011;19031;51.400;6.770;2022-09-20T07:02:59;5.60;;;2.28;;
32613;SDS011;19031;51.400;6.770;2022-09-20T07:05:25;8.90;;;3.08;;
32613;SDS011;19031;51.400;6.770;2022-09-20T07:07:54;8.05;;;3.05;;
32613;SDS011;19031;51.400;6.770;2022-09-20T07:10:24;6.22;;;2.50;;
32613;SDS011;19031;51.400;6.770;2022-09-20T07:12:56;6.32;;;2.65;;
32613;SDS011;19031;51.400;6.770;2022-09-20T07:15:23;9.00;;;2.53;;
32613;SDS011;19031;51.400;6.770;2022-09-20T07:17:49;4.78;;;2.30;;
32613;SDS011;19031;51.400;6.770;2022-09-20T07:20:15;4.72;;;1.52;;
32613;SDS011;19031;51.400;6.770;2022-09-20T07:22:41;16.73;;;2.78;;
32613;SDS011;19031;51.400;6.770;2022-09-20T07:25:06;4.78;;;1.98;;
32613;SDS011;19031;51.400;6.770;2022-09-20T07:27:32;3.40;;;1.75;;
32613;SDS011;19031;51.400;6.770;2022-09-20T07:29:58;13.35;;;2.47;;
32613;SDS011;19031;51.400;6.770;2022-09-20T07:32:23;4.10;;;2.08;;
32613;SDS011;19031;51.400;6.770;2022-09-20T07:34:50;4.57;;;2.05;;
32613;SDS011;19031;51.400;6.770;2022-09-20T07:37:16;3.88;;;1.75;;
32613;SDS011;19031;51.400;6.770;2022-09-20T07:39:43;5.95;;;2.67;;
32613;SDS011;19031;51.400;6.770;2022-09-20T07:42:10;3.03;;;1.63;;
32613;SDS011;19031;51.400;6.770;2022-09-20T07:44:36;10.68;;;2.40;;
32613;SDS011;19031;51.400;6.770;2022-09-20T07:47:03;6.18;;;2.70;;
32613;SDS011;19031;51.400;6.770;2022-09-20T07:49:30;12.80;;;2.42;;
32613;SDS011;19031;51.400;6.770;2022-09-20T07:51:56;7.15;;;2.15;;
32613;SDS011;19031;51.400;6.770;2022-09-20T07:54:22;4.22;;;2.25;;
32613;SDS011;19031;51.400;6.770;2022-09-20T07:56:48;5.53;;;1.80;;
32613;SDS011;19031;51.400;6.770;2022-09-20T07:59:13;4.18;;;1.65;;
32613;SDS011;19031;51.400;6.770;2022-09-20T08:01:40;6.05;;;2.00;;
32613;SDS011;19031;51.400;6.770;2022-09-20T08:04:06;3.65;;;1.08;;
32613;SDS011;19031;51.400;6.770;2022-09-20T08:06:39;4.50;;;1.40;;
32613;SDS011;19031;51.400;6.770;2022-09-20T08:09:09;8.20;;;1.13;;
32613;SDS011;19031;51.400;6.770;2022-09-20T08:11:35;13.85;;;1.65;;
32613;SDS011;19031;51.400;6.770;2022-09-20T08:14:02;0.88;;;0.50;;
32613;SDS011;19031;51.400;6.770;2022-09-20T08:16:28;8.63;;;1.25;;
32613;SDS011;19031;51.400;6.770;2022-09-20T08:18:59;5.30;;;1.30;;
32613;SDS011;19031;51.400;6.770;2022-09-20T08:21:26;4.15;;;1.20;;
32613;SDS011;19031;51.400;6.770;2022-09-20T08:23:55;2.42;;;1.15;;
32613;SDS011;19031;51.400;6.770;2022-09-20T08:26:22;3.83;;;1.13;;
32613;SDS011;19031;51.400;6.770;2022-09-20T08:28:50;5.32;;;1.27;;
32613;SDS011;19031;51.400;6.770;2022-09-20T08:31:18;5.50;;;1.20;;
32613;SDS011;19031;51.400;6.770;2022-09-20T08:33:45;4.30;;;1.20;;
32613;SDS011;19031;51.400;6.770;2022-09-20T08:36:13;5.25;;;1.15;;
32613;SDS011;19031;51.400;6.770;2022-09-20T08:38:40;5.78;;;1.23;;
32613;SDS011;19031;51.400;6.770;2022-09-20T08:41:09;1.13;;;0.80;;
32613;SDS011;19031;51.400;6.770;2022-09-20T08:43:43;6.05;;;0.80;;
32613;SDS011;19031;51.400;6.770;2022-09-20T08:46:25;5.00;;;1.60;;
32613;SDS011;19031;51.400;6.770;2022-09-20T08:48:53;4.80;;;0.98;;
32613;SDS011;19031;51.400;6.770;2022-09-20T08:51:21;3.53;;;1.23;;
32613;SDS011;19031;51.400;6.770;2022-09-20T08:53:54;1.55;;;0.85;;
32613;SDS011;19031;51.400;6.770;2022-09-20T08:56:20;5.38;;;0.88;;
32613;SDS011;19031;51.400;6.770;2022-09-20T08:58:46;3.72;;;1.20;;
32613;SDS011;19031;51.400;6.770;2022-09-20T09:01:16;3.15;;;0.98;;
32613;SDS011;19031;51.400;6.770;2022-09-20T09:03:44;1.98;;;0.82;;
32613;SDS011;19031;51.400;6.770;2022-09-20T09:06:11;6.85;;;0.60;;
32613;SDS011;19031;51.400;6.770;2022-09-20T09:08:39;2.60;;;0.70;;
32613;SDS011;19031;51.400;6.770;2022-09-20T09:11:10;7.43;;;1.20;;
32613;SDS011;19031;51.400;6.770;2022-09-20T09:13:49;2.92;;;1.45;;
32613;SDS011;19031;51.400;6.770;2022-09-20T09:16:51;2.53;;;0.77;;
32613;SDS011;19031;51.400;6.770;2022-09-20T09:19:25;4.60;;;0.68;;
32613;SDS011;19031;51.400;6.770;2022-09-20T09:21:57;3.03;;;0.77;;
32613;SDS011;19031;51.400;6.770;2022-09-20T09:24:28;1.65;;;0.60;;
32613;SDS011;19031;51.400;6.770;2022-09-20T09:27:05;2.28;;;0.40;;
32613;SDS011;19031;51.400;6.770;2022-09-20T09:29:51;3.08;;;0.75;;
32613;SDS011;19031;51.400;6.770;2022-09-20T09:32:20;4.30;;;0.65;;
32613;SDS011;19031;51.400;6.770;2022-09-20T09:34:53;2.25;;;0.55;;
32613;SDS011;19031;51.400;6.770;2022-09-20T09:37:26;3.60;;;0.65;;
32613;SDS011;19031;51.400;6.770;2022-09-20T09:40:14;2.80;;;0.98;;
32613;SDS011;19031;51.400;6.770;2022-09-20T09:42:52;4.20;;;1.23;;
32613;SDS011;19031;51.400;6.770;2022-09-20T09:45:37;4.47;;;0.30;;
32613;SDS011;19031;51.400;6.770;2022-09-20T09:48:17;3.47;;;0.73;;
32613;SDS011;19031;51.400;6.770;2022-09-20T09:50:44;1.95;;;0.68;;
32613;SDS011;19031;51.400;6.770;2022-09-20T09:53:13;2.28;;;0.50;;
32613;SDS011;19031;51.400;6.770;2022-09-20T09:58:27;4.57;;;0.85;;
32613;SDS011;19031;51.400;6.770;2022-09-20T10:01:03;3.92;;;0.55;;
32613;SDS011;19031;51.400;6.770;2022-09-20T10:03:41;16.98;;;0.90;;
32613;SDS011;19031;51.400;6.770;2022-09-20T10:06:21;2.08;;;0.68;;
32613;SDS011;19031;51.400;6.770;2022-09-20T10:14:41;6.43;;;0.65;;
32613;SDS011;19031;51.400;6.770;2022-09-20T10:20:24;4.82;;;0.90;;
32613;SDS011;19031;51.400;6.770;2022-09-20T10:34:40;1.65;;;0.68;;
32613;SDS011;19031;51.400;6.770;2022-09-20T10:42:46;1.75;;;0.60;;
32613;SDS011;19031;51.400;6.770;2022-09-20T10:48:30;1.70;;;0.45;;
32613;SDS011;19031;51.400;6.770;2022-09-20T10:54:04;0.95;;;0.40;;
32613;SDS011;19031;51.400;6.770;2022-09-20T10:56:45;2.25;;;0.47;;
32613;SDS011;19031;51.400;6.770;2022-09-20T11:05:16;4.28;;;0.50;;
32613;SDS011;19031;51.400;6.770;2022-09-20T11:08:27;6.35;;;0.73;;
32613;SDS011;19031;51.400;6.770;2022-09-20T11:10:50;4.95;;;0.40;;
32613;SDS011;19031;51.400;6.770;2022-09-20T11:13:32;1.27;;;0.45;;
32613;SDS011;19031;51.400;6.770;2022-09-20T11:16:38;4.07;;;0.50;;
32613;SDS011;19031;51.400;6.770;2022-09-20T11:19:34;2.38;;;0.40;;
32613;SDS011;19031;51.400;6.770;2022-09-20T11:22:09;2.08;;;0.90;;
32613;SDS011;19031;51.400;6.770;2022-09-20T11:24:43;3.90;;;0.40;;
32613;SDS011;19031;51.400;6.770;2022-09-20T11:30:06;10.35;;;1.10;;
32613;SDS011;19031;51.400;6.770;2022-09-20T11:32:55;2.15;;;0.40;;
32613;SDS011;19031;51.400;6.770;2022-09-20T11:35:51;0.65;;;0.20;;
32613;SDS011;19031;51.400;6.770;2022-09-20T11:38:34;2.40;;;0.40;;
32613;SDS011;19031;51.400;6.770;2022-09-20T11:43:35;3.90;;;0.40;;
32613;SDS011;19031;51.400;6.770;2022-09-20T11:46:07;0.88;;;0.20;;
32613;SDS011;19031;51.400;6.770;2022-09-20T11:48:41;1.92;;;0.17;;
32613;SDS011;19031;51.400;6.770;2022-09-20T11:56:35;5.45;;;0.68;;
32613;SDS011;19031;51.400;6.770;2022-09-20T11:59:03;2.70;;;0.28;;
32613;SDS011;19031;51.400;6.770;2022-09-20T12:01:36;2.17;;;0.30;;
32613;SDS011;19031;51.400;6.770;2022-09-20T12:06:58;2.97;;;0.50;;
32613;SDS011;19031;51.400;6.770;2022-09-20T12:09:33;1.63;;;0.40;;
32613;SDS011;19031;51.400;6.770;2022-09-20T12:14:39;2.13;;;0.50;;
32613;SDS011;19031;51.400;6.770;2022-09-20T12:17:32;0.55;;;0.30;;
32613;SDS011;19031;51.400;6.770;2022-09-20T12:26:06;1.65;;;0.13;;
32613;SDS011;19031;51.400;6.770;2022-09-20T12:34:27;1.23;;;0.35;;
32613;SDS011;19031;51.400;6.770;2022-09-20T12:39:16;3.90;;;0.52;;
32613;SDS011;19031;51.400;6.770;2022-09-20T13:03:39;1.73;;;0.22;;
32613;SDS011;19031;51.400;6.770;2022-09-20T13:11:39;1.65;;;0.35;;
32613;SDS011;19031;51.400;6.770;2022-09-20T13:14:25;1.30;;;0.35;;
32613;SDS011;19031;51.400;6.770;2022-09-20T13:19:32;1.50;;;0.30;;
32613;SDS011;19031;51.400;6.770;2022-09-20T13:22:05;2.90;;;0.30;;
32613;SDS011;19031;51.400;6.770;2022-09-20T13:29:48;0.80;;;0.20;;
32613;SDS011;19031;51.400;6.770;2022-09-20T13:32:21;2.28;;;0.30;;
32613;SDS011;19031;51.400;6.770;2022-09-20T13:43:13;2.40;;;0.40;;
32613;SDS011;19031;51.400;6.770;2022-09-20T13:45:56;3.28;;;0.30;;
32613;SDS011;19031;51.400;6.770;2022-09-20T13:48:24;0.45;;;0.17;;
32613;SDS011;19031;51.400;6.770;2022-09-20T13:50:54;0.70;;;0.40;;
32613;SDS011;19031;51.400;6.770;2022-09-20T13:53:23;0.98;;;0.30;;
32613;SDS011;19031;51.400;6.770;2022-09-20T13:55:50;1.13;;;0.32;;
32613;SDS011;19031;51.400;6.770;2022-09-20T13:58:28;8.25;;;0.50;;
32613;SDS011;19031;51.400;6.770;2022-09-20T14:00:57;1.33;;;0.50;;
32613;SDS011;19031;51.400;6.770;2022-09-20T14:03:26;1.65;;;0.28;;
32613;SDS011;19031;51.400;6.770;2022-09-20T14:06:14;0.63;;;0.25;;
32613;SDS011;19031;51.400;6.770;2022-09-20T14:08:43;1.13;;;0.20;;
32613;SDS011;19031;51.400;6.770;2022-09-20T14:11:30;4.40;;;0.40;;
32613;SDS011;19031;51.400;6.770;2022-09-20T14:13:58;2.00;;;0.40;;
32613;SDS011;19031;51.400;6.770;2022-09-20T14:16:32;0.52;;;0.20;;
32613;SDS011;19031;51.400;6.770;2022-09-20T14:19:02;3.40;;;0.47;;
32613;SDS011;19031;51.400;6.770;2022-09-20T14:21:31;0.70;;;0.50;;
32613;SDS011;19031;51.400;6.770;2022-09-20T14:24:05;4.45;;;0.45;;
32613;SDS011;19031;51.400;6.770;2022-09-20T14:27:02;1.42;;;0.45;;
32613;SDS011;19031;51.400;6.770;2022-09-20T14:29:43;2.42;;;0.35;;
32613;SDS011;19031;51.400;6.770;2022-09-20T14:34:46;1.50;;;0.15;;
32613;SDS011;19031;51.400;6.770;2022-09-20T14:39:49;1.17;;;0.35;;
32613;SDS011;19031;51.400;6.770;2022-09-20T14:45:06;2.00;;;0.50;;
32613;SDS011;19031;51.400;6.770;2022-09-20T14:50:37;0.52;;;0.20;;
32613;SDS011;19031;51.400;6.770;2022-09-20T14:55:30;2.00;;;0.20;;
32613;SDS011;19031;51.400;6.770;2022-09-20T14:57:58;3.25;;;0.30;;
32613;SDS011;19031;51.400;6.770;2022-09-20T15:01:13;1.17;;;0.30;;
32613;SDS011;19031;51.400;6.770;2022-09-20T15:03:43;7.47;;;0.50;;
32613;SDS011;19031;51.400;6.770;2022-09-20T15:06:09;4.85;;;0.55;;
32613;SDS011;19031;51.400;6.770;2022-09-20T15:08:35;0.30;;;0.10;;
32613;SDS011;19031;51.400;6.770;2022-09-20T15:11:02;3.67;;;0.20;;
32613;SDS011;19031;51.400;6.770;2022-09-20T15:13:28;3.10;;;0.35;;
32613;SDS011;19031;51.400;6.770;2022-09-20T15:15:54;1.13;;;0.40;;
32613;SDS011;19031;51.400;6.770;2022-09-20T15:18:30;4.07;;;0.40;;
32613;SDS011;19031;51.400;6.770;2022-09-20T15:21:05;3.05;;;0.40;;
32613;SDS011;19031;51.400;6.770;2022-09-20T15:23:30;0.52;;;0.30;;
32613;SDS011;19031;51.400;6.770;2022-09-20T15:25:56;3.45;;;0.47;;
32613;SDS011;19031;51.400;6.770;2022-09-20T15:28:22;2.53;;;0.57;;
32613;SDS011;19031;51.400;6.770;2022-09-20T15:30:49;1.30;;;0.63;;
32613;SDS011;19031;51.400;6.770;2022-09-20T15:33:16;1.52;;;0.40;;
32613;SDS011;19031;51.400;6.770;2022-09-20T15:35:43;3.22;;;0.50;;
32613;SDS011;19031;51.400;6.770;2022-09-20T15:38:09;2.10;;;0.47;;
32613;SDS011;19031;51.400;6.770;2022-09-20T15:40:41;3.83;;;0.43;;
32613;SDS011;19031;51.400;6.770;2022-09-20T15:43:13;0.73;;;0.20;;
32613;SDS011;19031;51.400;6.770;2022-09-20T15:45:50;1.65;;;0.38;;
32613;SDS011;19031;51.400;6.770;2022-09-20T15:48:19;2.88;;;0.57;;
32613;SDS011;19031;51.400;6.770;2022-09-20T15:51:05;3.08;;;0.63;;
32613;SDS011;19031;51.400;6.770;2022-09-20T15:53:36;1.40;;;0.40;;
32613;SDS011;19031;51.400;6.770;2022-09-20T15:56:12;0.60;;;0.30;;
32613;SDS011;19031;51.400;6.770;2022-09-20T15:58:42;1.08;;;0.32;;
32613;SDS011;19031;51.400;6.770;2022-09-20T16:01:10;1.40;;;0.52;;
32613;SDS011;19031;51.400;6.770;2022-09-20T16:03:36;1.85;;;0.38;;
32613;SDS011;19031;51.400;6.770;2022-09-20T16:06:03;2.05;;;0.43;;
32613;SDS011;19031;51.400;6.770;2022-09-20T16:08:34;2.25;;;0.68;;
32613;SDS011;19031;51.400;6.770;2022-09-20T16:11:01;3.90;;;0.70;;
32613;SDS011;19031;51.400;6.770;2022-09-20T16:13:27;6.15;;;0.82;;
32613;SDS011;19031;51.400;6.770;2022-09-20T16:15:54;3.97;;;1.42;;
32613;SDS011;19031;51.400;6.770;2022-09-20T16:18:26;2.78;;;0.38;;
32613;SDS011;19031;51.400;6.770;2022-09-20T16:21:12;4.90;;;0.40;;
32613;SDS011;19031;51.400;6.770;2022-09-20T16:23:40;2.55;;;0.75;;
32613;SDS011;19031;51.400;6.770;2022-09-20T16:26:10;1.70;;;0.47;;
32613;SDS011;19031;51.400;6.770;2022-09-20T16:28:40;1.52;;;0.28;;
32613;SDS011;19031;51.400;6.770;2022-09-20T16:31:26;3.17;;;0.60;;
32613;SDS011;19031;51.400;6.770;2022-09-20T16:34:03;4.15;;;0.60;;
32613;SDS011;19031;51.400;6.770;2022-09-20T16:36:31;3.47;;;0.75;;
32613;SDS011;19031;51.400;6.770;2022-09-20T16:38:57;4.82;;;2.67;;
32613;SDS011;19031;51.400;6.770;2022-09-20T16:41:23;1.63;;;0.47;;
32613;SDS011;19031;51.400;6.770;2022-09-20T16:43:50;4.32;;;0.75;;
32613;SDS011;19031;51.400;6.770;2022-09-20T16:46:23;2.40;;;0.60;;
32613;SDS011;19031;51.400;6.770;2022-09-20T16:48:53;4.10;;;0.60;;
32613;SDS011;19031;51.400;6.770;2022-09-20T16:51:22;3.88;;;0.40;;
32613;SDS011;19031;51.400;6.770;2022-09-20T16:53:52;4.38;;;0.57;;
32613;SDS011;19031;51.400;6.770;2022-09-20T16:56:28;1.67;;;0.30;;
32613;SDS011;19031;51.400;6.770;2022-09-20T16:58:58;0.50;;;0.30;;
32613;SDS011;19031;51.400;6.770;2022-09-20T17:01:27;4.38;;;0.40;;
32613;SDS011;19031;51.400;6.770;2022-09-20T17:03:54;4.28;;;0.73;;
32613;SDS011;19031;51.400;6.770;2022-09-20T17:06:20;0.95;;;0.30;;
32613;SDS011;19031;51.400;6.770;2022-09-20T17:08:46;1.88;;;0.73;;
32613;SDS011;19031;51.400;6.770;2022-09-20T17:11:16;2.15;;;0.43;;
32613;SDS011;19031;51.400;6.770;2022-09-20T17:13:48;2.35;;;0.65;;
32613;SDS011;19031;51.400;6.770;2022-09-20T17:16:20;2.00;;;0.43;;
32613;SDS011;19031;51.400;6.770;2022-09-20T17:18:51;3.35;;;0.88;;
32613;SDS011;19031;51.400;6.770;2022-09-20T17:21:20;1.15;;;0.30;;
32613;SDS011;19031;51.400;6.770;2022-09-20T17:23:47;1.67;;;0.22;;
32613;SDS011;19031;51.400;6.770;2022-09-20T17:26:58;2.22;;;0.50;;
32613;SDS011;19031;51.400;6.770;2022-09-20T17:29:08;1.13;;;0.43;;
32613;SDS011;19031;51.400;6.770;2022-09-20T17:31:38;2.65;;;0.93;;
32613;SDS011;19031;51.400;6.770;2022-09-20T17:34:06;1.00;;;0.38;;
32613;SDS011;19031;51.400;6.770;2022-09-20T17:36:34;2.00;;;0.65;;
32613;SDS011;19031;51.400;6.770;2022-09-20T17:39:05;2.25;;;0.63;;
32613;SDS011;19031;51.400;6.770;2022-09-20T17:41:36;2.92;;;0.88;;
32613;SDS011;19031;51.400;6.770;2022-09-20T17:44:07;1.95;;;0.77;;
32613;SDS011;19031;51.400;6.770;2022-09-20T17:46:35;5.32;;;0.95;;
32613;SDS011;19031;51.400;6.770;2022-09-20T17:49:03;1.85;;;0.60;;
32613;SDS011;19031;51.400;6.770;2022-09-20T17:51:41;2.28;;;0.73;;
32613;SDS011;19031;51.400;6.770;2022-09-20T17:54:17;4.20;;;2.40;;
32613;SDS011;19031;51.400;6.770;2022-09-20T17:56:44;5.03;;;2.13;;
32613;SDS011;19031;51.400;6.770;2022-09-20T17:59:11;5.82;;;2.50;;
32613;SDS011;19031;51.400;6.770;2022-09-20T18:01:40;3.88;;;2.80;;
32613;SDS011;19031;51.400;6.770;2022-09-20T18:04:07;7.50;;;4.57;;
32613;SDS011;19031;51.400;6.770;2022-09-20T18:06:37;9.30;;;5.03;;
32613;SDS011;19031;51.400;6.770;2022-09-20T18:09:08;4.28;;;2.40;;
32613;SDS011;19031;51.400;6.770;2022-09-20T18:11:39;10.60;;;1.58;;
32613;SDS011;19031;51.400;6.770;2022-09-20T18:14:08;5.22;;;1.83;;
32613;SDS011;19031;51.400;6.770;2022-09-20T18:16:34;4.22;;;1.88;;
32613;SDS011;19031;51.400;6.770;2022-09-20T18:19:02;1.80;;;1.30;;
32613;SDS011;19031;51.400;6.770;2022-09-20T18:21:30;5.85;;;1.13;;
32613;SDS011;19031;51.400;6.770;2022-09-20T18:23:57;7.43;;;1.42;;
32613;SDS011;19031;51.400;6.770;2022-09-20T18:26:23;1.50;;;0.70;;
32613;SDS011;19031;51.400;6.770;2022-09-20T18:31:20;1.90;;;0.90;;
32613;SDS011;19031;51.400;6.770;2022-09-20T18:33:58;2.15;;;0.85;;
32613;SDS011;19031;51.400;6.770;2022-09-20T18:36:24;6.13;;;1.55;;
32613;SDS011;19031;51.400;6.770;2022-09-20T18:38:52;5.28;;;2.25;;
32613;SDS011;19031;51.400;6.770;2022-09-20T18:41:26;2.10;;;1.08;;
32613;SDS011;19031;51.400;6.770;2022-09-20T18:43:56;4.28;;;1.23;;
32613;SDS011;19031;51.400;6.770;2022-09-20T18:46:23;1.83;;;1.05;;
32613;SDS011;19031;51.400;6.770;2022-09-20T18:48:54;5.95;;;1.70;;
32613;SDS011;19031;51.400;6.770;2022-09-20T18:51:21;2.55;;;1.35;;
32613;SDS011;19031;51.400;6.770;2022-09-20T18:53:49;3.00;;;1.60;;
32613;SDS011;19031;51.400;6.770;2022-09-20T18:56:25;1.45;;;1.08;;
32613;SDS011;19031;51.400;6.770;2022-09-20T18:58:55;4.80;;;3.10;;
32613;SDS011;19031;51.400;6.770;2022-09-20T19:06:30;3.55;;;2.15;;
32613;SDS011;19031;51.400;6.770;2022-09-20T19:09:07;4.32;;;2.35;;
32613;SDS011;19031;51.400;6.770;2022-09-20T19:11:42;6.68;;;3.22;;
32613;SDS011;19031;51.400;6.770;2022-09-20T19:14:16;10.02;;;3.33;;
32613;SDS011;19031;51.400;6.770;2022-09-20T19:17:07;11.25;;;4.13;;
32613;SDS011;19031;51.400;6.770;2022-09-20T19:27:37;14.25;;;4.07;;
32613;SDS011;19031;51.400;6.770;2022-09-20T19:30:03;7.32;;;3.42;;
32613;SDS011;19031;51.400;6.770;2022-09-20T19:32:29;8.70;;;2.95;;
32613;SDS011;19031;51.400;6.770;2022-09-20T19:34:55;7.15;;;2.42;;
32613;SDS011;19031;51.400;6.770;2022-09-20T19:50:56;3.00;;;1.08;;
32613;SDS011;19031;51.400;6.770;2022-09-20T19:53:26;5.00;;;1.20;;
32613;SDS011;19031;51.400;6.770;2022-09-20T19:55:54;2.38;;;1.20;;
32613;SDS011;19031;51.400;6.770;2022-09-20T19:58:23;5.00;;;1.17;;
32613;SDS011;19031;51.400;6.770;2022-09-20T20:00:49;9.75;;;1.95;;
32613;SDS011;19031;51.400;6.770;2022-09-20T20:03:15;3.55;;;1.33;;
32613;SDS011;19031;51.400;6.770;2022-09-20T20:05:49;1.88;;;1.25;;
32613;SDS011;19031;51.400;6.770;2022-09-20T20:08:22;4.20;;;1.65;;
32613;SDS011;19031;51.400;6.770;2022-09-20T20:17:16;4.40;;;1.52;;
32613;SDS011;19031;51.400;6.770;2022-09-20T20:24:52;4.32;;;1.77;;
32613;SDS011;19031;51.400;6.770;2022-09-20T20:27:21;4.88;;;1.33;;
32613;SDS011;19031;51.400;6.770;2022-09-20T20:29:47;6.78;;;1.75;;
32613;SDS011;19031;51.400;6.770;2022-09-20T20:32:13;6.38;;;1.80;;
32613;SDS011;19031;51.400;6.770;2022-09-20T20:34:40;5.82;;;1.33;;
32613;SDS011;19031;51.400;6.770;2022-09-20T20:37:06;4.97;;;1.30;;
32613;SDS011;19031;51.400;6.770;2022-09-20T20:39:32;4.22;;;1.25;;
32613;SDS011;19031;51.400;6.770;2022-09-20T20:41:58;3.03;;;1.50;;
32613;SDS011;19031;51.400;6.770;2022-09-20T20:44:31;3.90;;;1.42;;
32613;SDS011;19031;51.400;6.770;2022-09-20T20:47:01;4.40;;;1.50;;
32613;SDS011;19031;51.400;6.770;2022-09-20T20:49:27;5.80;;;1.60;;
32613;SDS011;19031;51.400;6.770;2022-09-20T20:51:53;5.30;;;1.25;;
32613;SDS011;19031;51.400;6.770;2022-09-20T20:54:20;2.67;;;1.40;;
32613;SDS011;19031;51.400;6.770;2022-09-20T20:56:45;3.40;;;1.65;;
32613;SDS011;19031;51.400;6.770;2022-09-20T20:59:11;2.38;;;1.20;;
32613;SDS011;19031;51.400;6.770;2022-09-20T21:01:38;4.00;;;1.77;;
32613;SDS011;19031;51.400;6.770;2022-09-20T21:04:08;2.45;;;1.30;;
32613;SDS011;19031;51.400;6.770;2022-09-20T21:06:35;3.20;;;1.30;;
32613;SDS011;19031;51.400;6.770;2022-09-20T21:09:03;3.00;;;1.85;;
32613;SDS011;19031;51.400;6.770;2022-09-20T21:11:30;5.57;;;2.00;;
32613;SDS011;19031;51.400;6.770;2022-09-20T21:13:58;3.97;;;1.55;;
32613;SDS011;19031;51.400;6.770;2022-09-20T21:16:26;2.30;;;1.25;;
32613;SDS011;19031;51.400;6.770;2022-09-20T21:18:56;4.55;;;1.15;;
32613;SDS011;19031;51.400;6.770;2022-09-20T21:21:29;2.40;;;1.25;;
32613;SDS011;19031;51.400;6.770;2022-09-20T21:23:57;4.88;;;2.15;;
32613;SDS011;19031;51.400;6.770;2022-09-20T21:26:26;1.95;;;1.27;;
32613;SDS011;19031;51.400;6.770;2022-09-20T21:29:00;2.35;;;1.52;;
32613;SDS011;19031;51.400;6.770;2022-09-20T21:31:28;1.10;;;0.90;;
32613;SDS011;19031;51.400;6.770;2022-09-20T21:33:55;3.17;;;1.40;;
32613;SDS011;19031;51.400;6.770;2022-09-20T21:36:23;3.70;;;1.67;;